Peach Orchard, Missouri
Current Conditions -  °F | °C
As of 7:53 AM on Sunday 25 Jan 2015 (Local Time) from KPOF Reporting Station
Light Rain Light Rain  
Wind Chill: 35°   Ceiling: 4800
Heat Index: 40°   Visibility: 6mi
Dew Point: 36°   Wind: 7mph
Humidity: 86%   Direction: 230°SW
Pressure: 29.66"   Gusts: NA
Location:  36.4472°N, 89.9037°W
Report Text: KPOF 251353Z AUTO 23006KT 6SM -RA BR OVC048 04/02 A2966 RMK AO2 SLP047 P0005 T00440022
Loading
Personal Weather Stations






























Interactive Weather Map New forecast layout! Learn more

10-Day Weather Forecast

Advertisements
Track Severe Weather on mobile